Time;durP1;ratioP1;P1;durP2;ratioP2;P2;SDS_P1;SDS_P2;PMS_P1;PMS_P2;Temp;Humidity;BMP_temperature;BMP_pressure;BME280_temperature;BME280_humidity;BME280_pressure;Samples;Min_cycle;Max_cycle;Signal;HPM_P1;HPM_P2
2022/03/30 00:00:48;;;;;;;8.35;6.55;;;-2.90;99.90;-3.60;97099.00;;;;4853891;29;92034;-60
2022/03/30 00:03:14;;;;;;;6.28;4.90;;;-2.90;99.90;-3.60;97101.00;;;;4830916;29;94082;-61
2022/03/30 00:05:41;;;;;;;7.53;5.38;;;-3.00;99.90;-3.60;97098.00;;;;4857435;29;93255;-61
2022/03/30 00:08:07;;;;;;;8.45;5.90;;;-3.00;99.90;-3.70;97105.00;;;;4853079;29;92055;-60
2022/03/30 00:10:34;;;;;;;8.18;5.95;;;-3.10;99.90;-3.70;97105.00;;;;4859267;29;92834;-60
2022/03/30 00:13:01;;;;;;;8.70;5.93;;;-3.00;99.90;-3.60;97111.00;;;;4860805;29;92718;-60
2022/03/30 00:15:28;;;;;;;8.65;6.45;;;-3.00;99.90;-3.60;97106.00;;;;4862239;29;93001;-61
2022/03/30 00:17:55;;;;;;;7.53;5.80;;;-3.10;99.90;-3.70;97108.00;;;;4860293;29;92024;-61
2022/03/30 00:20:21;;;;;;;6.22;4.93;;;-3.00;99.90;-3.70;97108.00;;;;4856856;29;91539;-61
2022/03/30 00:22:48;;;;;;;6.03;4.95;;;-3.10;99.90;-3.70;97107.00;;;;4837928;29;93663;-60
2022/03/30 00:25:14;;;;;;;10.45;5.65;;;-3.10;99.90;-3.70;97110.00;;;;4861681;29;93550;-60
2022/03/30 00:27:43;;;;;;;7.53;5.50;;;-3.10;99.90;-3.70;97122.00;;;;4862025;29;92977;-60
2022/03/30 00:30:12;;;;;;;8.10;5.93;;;-3.10;99.90;-3.60;97107.00;;;;4812893;29;92171;-61
2022/03/30 00:32:38;;;;;;;7.57;6.35;;;-3.10;99.90;-3.70;97111.00;;;;4864816;29;92844;-60
2022/03/30 00:35:07;;;;;;;7.15;5.75;;;-3.10;99.90;-3.70;97116.00;;;;4844223;29;94806;-60
2022/03/30 00:37:35;;;;;;;6.38;4.90;;;-3.10;99.90;-3.70;97129.00;;;;4848756;29;92074;-60
2022/03/30 00:40:06;;;;;;;6.43;4.82;;;-3.10;99.90;-3.80;97132.00;;;;4860216;29;92321;-60
2022/03/30 00:42:32;;;;;;;8.00;5.65;;;-3.20;99.90;-3.80;97113.00;;;;4856953;29;93747;-60
2022/03/30 00:45:09;;;;;;;7.97;5.38;;;-3.20;99.90;-3.80;97125.00;;;;4856598;29;93425;-60
2022/03/30 00:47:36;;;;;;;7.63;5.35;;;-3.20;99.90;-3.80;97123.00;;;;4857931;29;92029;-60
2022/03/30 00:50:05;;;;;;;8.38;5.63;;;-3.20;99.90;-3.80;97132.00;;;;4852508;28;92614;-60
2022/03/30 00:52:31;;;;;;;7.40;5.13;;;-3.20;99.90;-3.80;97136.00;;;;4854994;29;93641;-60
2022/03/30 00:54:59;;;;;;;5.70;5.00;;;-3.20;99.90;-3.80;97134.00;;;;4855333;29;93326;-60
2022/03/30 00:57:27;;;;;;;6.78;5.30;;;-3.30;99.90;-3.90;97131.00;;;;4836497;29;92073;-61
2022/03/30 00:59:54;;;;;;;6.28;5.68;;;-3.30;99.90;-3.80;97134.00;;;;4835150;29;92047;-61
2022/03/30 01:02:21;;;;;;;8.68;6.25;;;-3.20;99.90;-3.90;97133.00;;;;4835278;29;92709;-60
2022/03/30 01:04:47;;;;;;;9.55;6.22;;;-3.20;99.90;-3.90;97130.00;;;;4855316;29;92630;-60
2022/03/30 01:07:14;;;;;;;7.07;6.28;;;-3.20;99.90;-3.90;97141.00;;;;4855155;29;92456;-60
2022/03/30 01:09:40;;;;;;;7.78;6.50;;;-3.20;99.90;-3.90;97140.00;;;;4837896;29;91318;-60
2022/03/30 01:12:10;;;;;;;8.63;6.55;;;-3.30;99.90;-3.90;97146.00;;;;4853814;29;92766;-60
2022/03/30 01:14:37;;;;;;;9.48;7.13;;;-3.30;99.90;-3.90;97147.00;;;;4851312;29;92355;-60
2022/03/30 01:17:05;;;;;;;8.60;7.22;;;-3.30;99.90;-3.90;97152.00;;;;4837591;29;93369;-60
2022/03/30 01:19:34;;;;;;;7.57;6.30;;;-3.30;99.90;-4.00;97152.00;;;;4853620;29;91882;-62
2022/03/30 01:22:00;;;;;;;6.82;5.70;;;-3.40;99.90;-4.00;97147.00;;;;4851383;29;92786;-61
2022/03/30 01:24:28;;;;;;;7.75;6.30;;;-3.40;99.90;-4.00;97154.00;;;;4839750;29;93596;-60
2022/03/30 01:26:54;;;;;;;8.88;6.13;;;-3.40;99.90;-4.10;97152.00;;;;4852297;29;92013;-61
2022/03/30 01:32:26;;;;;;;7.40;6.10;;;-3.50;99.90;-4.10;97161.00;;;;4858900;29;92721;-60
2022/03/30 01:34:59;;;;;;;6.45;5.70;;;-3.50;99.90;-4.20;97157.00;;;;4859127;29;93381;-61
2022/03/30 01:37:28;;;;;;;6.70;5.57;;;-3.60;99.90;-4.20;97176.00;;;;4858539;29;92129;-62
2022/03/30 01:40:01;;;;;;;6.00;5.22;;;-3.60;99.90;-4.30;97160.00;;;;4853486;29;92213;-60
2022/03/30 01:42:30;;;;;;;7.22;5.85;;;-3.70;99.90;-4.30;97152.00;;;;4835837;29;94196;-61
2022/03/30 01:44:56;;;;;;;7.40;6.45;;;-3.70;99.90;-4.40;97156.00;;;;4852646;29;94529;-61
2022/03/30 01:47:22;;;;;;;8.05;6.68;;;-3.70;99.90;-4.40;97169.00;;;;4854082;29;91980;-60
2022/03/30 01:49:49;;;;;;;9.45;7.25;;;-3.70;99.90;-4.40;97168.00;;;;4853198;29;92178;-61
2022/03/30 01:52:16;;;;;;;8.20;7.40;;;-3.80;99.90;-4.40;97166.00;;;;4850050;29;93814;-61
2022/03/30 01:54:43;;;;;;;9.77;7.18;;;-3.80;99.90;-4.50;97169.00;;;;4828410;29;93435;-61
2022/03/30 01:57:14;;;;;;;7.97;7.10;;;-3.80;99.90;-4.50;97172.00;;;;4855455;29;92152;-61
2022/03/30 01:59:45;;;;;;;8.75;7.85;;;-3.80;99.90;-4.50;97176.00;;;;4857459;29;91183;-61
2022/03/30 02:02:12;;;;;;;9.82;8.43;;;-3.80;99.90;-4.50;97183.00;;;;4840081;29;93836;-62
2022/03/30 02:04:40;;;;;;;9.88;8.40;;;-3.80;99.90;-4.40;97177.00;;;;4832797;29;94868;-62
2022/03/30 02:07:10;;;;;;;9.38;8.32;;;-3.80;99.90;-4.50;97169.00;;;;4858644;29;92929;-62
2022/03/30 02:09:38;;;;;;;10.30;8.05;;;-3.80;99.90;-4.50;97188.00;;;;4852712;29;92814;-62
2022/03/30 02:12:06;;;;;;;10.25;9.07;;;-3.80;99.90;-4.40;97183.00;;;;4860638;29;92602;-62
2022/03/30 02:14:33;;;;;;;9.95;8.95;;;-3.80;99.90;-4.50;97184.00;;;;4855209;29;93414;-62
2022/03/30 02:16:59;;;;;;;9.35;8.32;;;-3.80;99.90;-4.50;97183.00;;;;4854317;29;92239;-62
2022/03/30 02:19:25;;;;;;;8.30;7.45;;;-3.80;99.90;-4.40;97186.00;;;;4855778;29;92069;-61
2022/03/30 02:21:51;;;;;;;10.07;7.72;;;-3.80;99.90;-4.40;97185.00;;;;4859793;29;92931;-61
2022/03/30 02:24:18;;;;;;;10.98;8.55;;;-3.80;99.90;-4.40;97195.00;;;;4861241;29;92264;-61
2022/03/30 02:26:45;;;;;;;8.57;7.18;;;-3.80;99.90;-4.40;97195.00;;;;4855215;29;91993;-61
2022/03/30 02:29:11;;;;;;;7.88;6.55;;;-3.70;99.90;-4.40;97206.00;;;;4838040;29;92409;-62
2022/03/30 02:31:37;;;;;;;8.18;6.97;;;-3.70;99.90;-4.50;97201.00;;;;4851867;29;93734;-60
2022/03/30 02:34:04;;;;;;;9.07;6.70;;;-3.80;99.90;-4.50;97213.00;;;;4854055;29;94459;-62
2022/03/30 02:36:30;;;;;;;9.32;6.20;;;-3.80;99.90;-4.50;97207.00;;;;4837442;29;92239;-61
2022/03/30 02:38:58;;;;;;;10.38;6.53;;;-3.90;99.90;-4.50;97223.00;;;;4855125;29;92119;-62
2022/03/30 02:41:24;;;;;;;8.27;6.80;;;-3.90;99.90;-4.50;97240.00;;;;4856168;29;92680;-62
2022/03/30 02:43:50;;;;;;;7.10;5.70;;;-3.90;99.90;-4.60;97242.00;;;;4853931;29;93732;-62
2022/03/30 02:46:17;;;;;;;7.57;5.72;;;-4.00;99.90;-4.60;97238.00;;;;4856486;29;92464;-62
2022/03/30 02:48:43;;;;;;;6.05;5.10;;;-4.00;99.90;-4.70;97252.00;;;;4856547;29;92072;-61
2022/03/30 02:51:09;;;;;;;6.30;5.20;;;-4.10;99.90;-4.70;97244.00;;;;4861178;28;93186;-61
2022/03/30 02:53:36;;;;;;;6.82;5.13;;;-4.10;99.90;-4.80;97245.00;;;;4874551;28;93571;-61
2022/03/30 02:56:03;;;;;;;7.85;5.35;;;-4.10;99.90;-4.80;97246.00;;;;4874582;28;92948;-62
2022/03/30 02:58:30;;;;;;;7.18;5.22;;;-4.20;99.90;-4.80;97257.00;;;;4874418;28;92238;-61
2022/03/30 03:00:56;;;;;;;6.88;5.07;;;-4.20;99.90;-4.80;97261.00;;;;4874408;28;92746;-62
2022/03/30 03:03:24;;;;;;;5.97;5.38;;;-4.20;99.90;-4.80;97259.00;;;;4864822;28;93465;-61
2022/03/30 03:05:50;;;;;;;6.63;4.97;;;-4.10;99.90;-4.80;97267.00;;;;4872223;28;91996;-62
2022/03/30 03:08:16;;;;;;;8.00;5.68;;;-4.20;99.90;-4.70;97277.00;;;;4860160;28;92243;-61
2022/03/30 03:10:46;;;;;;;8.07;6.35;;;-4.10;99.90;-4.70;97268.00;;;;4869400;28;93005;-61
2022/03/30 03:13:13;;;;;;;7.65;6.00;;;-4.10;99.90;-4.70;97270.00;;;;4877344;28;92319;-61
2022/03/30 03:15:41;;;;;;;9.05;6.18;;;-4.00;99.90;-4.70;97268.00;;;;4846711;28;92489;-62
2022/03/30 03:18:07;;;;;;;7.90;6.25;;;-4.00;99.90;-4.70;97276.00;;;;4869323;28;92135;-62
2022/03/30 03:20:34;;;;;;;7.88;6.32;;;-4.10;99.90;-4.80;97279.00;;;;4873312;28;94647;-62
2022/03/30 03:23:02;;;;;;;8.43;6.03;;;-4.10;99.90;-4.80;97273.00;;;;4874127;28;92185;-61
2022/03/30 03:25:31;;;;;;;7.80;6.50;;;-4.20;99.90;-4.80;97274.00;;;;4860851;28;92588;-61
2022/03/30 03:27:58;;;;;;;9.07;6.55;;;-4.20;99.90;-4.90;97264.00;;;;4871308;28;92326;-62
2022/03/30 03:30:24;;;;;;;9.98;6.53;;;-4.20;99.90;-5.00;97272.00;;;;4879503;28;92847;-62
2022/03/30 03:32:50;;;;;;;7.32;5.95;;;-4.30;99.90;-5.10;97286.00;;;;4839797;29;92408;-62
2022/03/30 03:35:16;;;;;;;8.32;6.70;;;-4.40;99.90;-5.20;97285.00;;;;4864740;28;92089;-62
2022/03/30 03:37:43;;;;;;;7.75;5.30;;;-4.40;99.90;-5.20;97291.00;;;;4867016;28;91979;-62
2022/03/30 03:40:11;;;;;;;7.18;4.80;;;-4.40;99.90;-5.20;97298.00;;;;4879200;28;92803;-62
2022/03/30 03:42:38;;;;;;;7.05;5.13;;;-4.50;99.90;-5.20;97298.00;;;;4875031;28;92353;-62
2022/03/30 03:45:06;;;;;;;6.38;5.35;;;-4.50;99.90;-4.70;97282.00;;;;4856495;28;92927;-62
2022/03/30 03:47:33;;;;;;;6.35;4.72;;;-4.20;99.90;-4.20;97293.00;;;;4874712;28;92054;-62
2022/03/30 03:49:59;;;;;;;7.85;4.93;;;-4.00;99.90;-3.60;97293.00;;;;4858601;28;93745;-61
2022/03/30 03:52:26;;;;;;;7.72;4.85;;;-3.60;99.90;-3.20;97307.00;;;;4858149;29;92603;-61
2022/03/30 03:54:52;;;;;;;6.97;5.00;;;-3.40;99.90;-3.00;97295.00;;;;4865678;29;91928;-61
2022/03/30 03:57:18;;;;;;;5.85;4.65;;;-3.20;99.90;-2.60;97308.00;;;;4863227;29;92038;-60
2022/03/30 03:59:44;;;;;;;5.70;4.70;;;-3.00;99.90;-2.40;97308.00;;;;4857811;29;92493;-60
2022/03/30 04:02:11;;;;;;;5.38;4.38;;;-2.90;99.90;-2.10;97308.00;;;;4855458;29;93672;-61
2022/03/30 04:04:38;;;;;;;4.97;4.20;;;-2.60;99.90;-2.10;97315.00;;;;4860835;29;92411;-60
2022/03/30 04:07:05;;;;;;;6.03;4.50;;;-2.60;99.90;-2.10;97332.00;;;;4847602;29;92091;-60
2022/03/30 04:09:31;;;;;;;7.80;5.10;;;-2.70;99.90;-2.20;97333.00;;;;4856843;29;94545;-60
2022/03/30 04:11:58;;;;;;;6.60;5.22;;;-2.70;99.90;-2.40;97319.00;;;;4856061;29;93238;-60
2022/03/30 04:14:24;;;;;;;6.55;5.10;;;-2.60;99.90;-2.30;97332.00;;;;4851843;29;91983;-60
2022/03/30 04:16:50;;;;;;;8.40;5.50;;;-2.70;99.90;-2.60;97336.00;;;;4858443;29;92393;-61
2022/03/30 04:19:18;;;;;;;9.10;5.97;;;-2.80;99.90;-3.00;97351.00;;;;4861714;29;92641;-59
2022/03/30 04:21:45;;;;;;;6.80;5.38;;;-2.90;99.90;-3.40;97348.00;;;;4850304;28;93616;-61
2022/03/30 04:24:12;;;;;;;7.03;5.45;;;-3.10;99.90;-3.70;97343.00;;;;4862347;29;92403;-61
2022/03/30 04:26:39;;;;;;;7.32;4.97;;;-3.30;99.90;-3.80;97349.00;;;;4848745;29;91523;-60
2022/03/30 04:29:06;;;;;;;6.15;4.88;;;-3.40;99.90;-3.80;97339.00;;;;4860128;29;93557;-60
2022/03/30 04:31:32;;;;;;;8.48;5.43;;;-3.40;99.90;-3.80;97353.00;;;;4835935;29;92750;-60
2022/03/30 04:33:59;;;;;;;9.98;5.43;;;-3.40;99.90;-3.90;97350.00;;;;4854241;29;93004;-60
2022/03/30 04:36:25;;;;;;;6.40;5.20;;;-3.50;99.90;-4.00;97355.00;;;;4858159;29;92477;-61
2022/03/30 04:38:52;;;;;;;5.70;4.50;;;-3.60;99.90;-3.70;97356.00;;;;4836743;29;94004;-60
2022/03/30 04:41:19;;;;;;;7.93;5.03;;;-3.40;99.90;-3.80;97364.00;;;;4856926;29;94166;-60
2022/03/30 04:43:45;;;;;;;7.70;4.97;;;-3.50;99.90;-3.90;97357.00;;;;4851138;29;92022;-61
2022/03/30 04:46:13;;;;;;;6.47;5.47;;;-3.50;99.90;-4.00;97362.00;;;;4856127;29;92307;-61
2022/03/30 04:48:39;;;;;;;10.40;5.97;;;-3.60;99.90;-3.80;97352.00;;;;4861619;29;92606;-62
2022/03/30 04:51:06;;;;;;;6.22;4.75;;;-3.50;99.90;-3.20;97362.00;;;;4854915;28;93958;-62
2022/03/30 04:53:32;;;;;;;7.97;5.10;;;-3.30;99.90;-2.40;97362.00;;;;4880176;28;92621;-63
2022/03/30 04:55:59;;;;;;;6.65;4.95;;;-2.90;99.90;-1.80;97364.00;;;;4881896;28;92262;-62
2022/03/30 04:58:25;;;;;;;6.22;4.22;;;-2.50;99.90;-1.70;97374.00;;;;4862740;28;93618;-62
2022/03/30 05:00:52;;;;;;;6.07;4.78;;;-2.30;99.90;-2.60;97370.00;;;;4853253;29;93247;-61
2022/03/30 05:03:18;;;;;;;6.13;4.60;;;-2.90;99.90;-3.00;97391.00;;;;4874712;28;92394;-62
2022/03/30 05:05:44;;;;;;;6.25;5.30;;;-3.10;99.90;-3.30;97371.00;;;;4879174;28;92602;-61
2022/03/30 05:08:10;;;;;;;5.72;4.50;;;-3.20;99.90;-3.40;97372.00;;;;4875561;28;93672;-62
2022/03/30 05:10:37;;;;;;;5.35;4.07;;;-3.20;99.90;-3.40;97385.00;;;;4868528;28;92560;-61
2022/03/30 05:13:04;;;;;;;5.05;4.30;;;-3.20;99.90;-3.40;97378.00;;;;4875387;28;92038;-62
2022/03/30 05:15:31;;;;;;;5.80;4.28;;;-3.00;99.90;-3.50;97399.00;;;;4872743;28;91354;-61
2022/03/30 05:17:57;;;;;;;6.85;4.85;;;-3.00;99.90;-3.50;97398.00;;;;4876381;28;93234;-62
2022/03/30 05:20:25;;;;;;;7.38;5.43;;;-3.00;99.90;-3.50;97402.00;;;;4873218;28;92332;-62
2022/03/30 05:22:51;;;;;;;5.35;4.20;;;-3.10;99.90;-3.40;97407.00;;;;4877201;28;93350;-61
2022/03/30 05:25:20;;;;;;;6.35;4.63;;;-3.00;99.90;-3.50;97401.00;;;;4878349;28;92630;-61
2022/03/30 05:27:47;;;;;;;6.82;5.07;;;-2.90;99.90;-3.30;97408.00;;;;4846155;29;92646;-62
2022/03/30 05:30:14;;;;;;;5.78;4.00;;;-2.80;99.90;-3.20;97408.00;;;;4873868;28;92735;-60
2022/03/30 05:32:45;;;;;;;6.43;4.18;;;-2.70;99.90;-3.10;97399.00;;;;4873891;28;92385;-61
2022/03/30 05:35:13;;;;;;;5.95;3.88;;;-2.60;99.90;-3.10;97419.00;;;;4881612;28;91992;-61
2022/03/30 05:37:39;;;;;;;4.70;3.90;;;-2.60;99.90;-3.10;97413.00;;;;4875860;28;92762;-61
2022/03/30 05:40:07;;;;;;;6.03;3.30;;;-2.70;99.90;-3.00;97419.00;;;;4867498;28;92840;-61
2022/03/30 05:42:33;;;;;;;4.35;3.40;;;-2.60;99.90;-3.10;97427.00;;;;4873290;28;91987;-61
2022/03/30 05:45:00;;;;;;;4.63;3.80;;;-2.80;99.90;-3.30;97439.00;;;;4873286;28;92083;-60
2022/03/30 05:47:28;;;;;;;5.28;4.22;;;-2.90;99.90;-3.30;97437.00;;;;4867660;28;93552;-61
2022/03/30 05:49:54;;;;;;;7.45;3.60;;;-2.80;99.90;-3.30;97443.00;;;;4853195;29;94242;-61
2022/03/30 05:52:20;;;;;;;6.75;3.97;;;-2.90;99.90;-3.30;97428.00;;;;4856881;29;92597;-61
2022/03/30 05:54:47;;;;;;;5.85;3.88;;;-2.80;99.90;-3.10;97435.00;;;;4815199;29;92109;-61
2022/03/30 05:57:13;;;;;;;4.95;3.85;;;-2.60;99.90;-3.20;97442.00;;;;4841870;29;93822;-60
2022/03/30 05:59:42;;;;;;;4.10;3.33;;;-2.80;99.90;-3.40;97448.00;;;;4848173;29;92538;-61
2022/03/30 06:02:11;;;;;;;4.80;3.13;;;-3.00;99.90;-3.50;97437.00;;;;4849800;29;92536;-62
2022/03/30 06:04:39;;;;;;;4.63;3.15;;;-3.00;99.90;-3.20;97449.00;;;;4828740;29;91456;-61
2022/03/30 06:07:05;;;;;;;3.17;2.75;;;-2.80;99.90;-3.20;97427.00;;;;4841341;29;93588;-62
2022/03/30 06:09:34;;;;;;;5.18;2.80;;;-2.70;99.90;-3.00;97430.00;;;;4860897;29;93132;-62
2022/03/30 06:12:03;;;;;;;6.07;2.92;;;-2.50;99.90;-2.90;97444.00;;;;4848824;29;93642;-62
2022/03/30 06:14:34;;;;;;;4.43;2.90;;;-2.40;99.90;-2.70;97451.00;;;;4841088;29;92042;-61
2022/03/30 06:17:04;;;;;;;4.13;2.65;;;-2.30;99.90;-2.60;97442.00;;;;4856396;29;93760;-61
2022/03/30 06:19:32;;;;;;;3.70;3.15;;;-2.20;99.90;-2.60;97466.00;;;;4843142;29;92530;-61
2022/03/30 06:21:58;;;;;;;3.45;2.50;;;-2.20;99.90;-2.60;97460.00;;;;4828821;29;92726;-61
2022/03/30 06:24:24;;;;;;;2.95;2.50;;;-2.20;99.90;-2.80;97459.00;;;;4847100;29;92166;-62
2022/03/30 06:26:51;;;;;;;3.28;2.60;;;-2.40;99.90;-2.70;97464.00;;;;4859874;29;92777;-61
2022/03/30 06:29:17;;;;;;;3.47;2.40;;;-2.30;99.90;-2.80;97464.00;;;;4817877;29;92264;-61
2022/03/30 06:31:43;;;;;;;5.35;2.83;;;-2.40;99.90;-2.70;97474.00;;;;4857939;29;92247;-61
2022/03/30 06:34:09;;;;;;;4.32;3.15;;;-2.40;99.90;-2.80;97484.00;;;;4865005;29;92575;-63
2022/03/30 06:36:38;;;;;;;4.97;2.30;;;-2.30;99.90;-2.50;97480.00;;;;4859882;29;93724;-61
2022/03/30 06:39:05;;;;;;;4.10;2.35;;;-2.20;99.90;-2.80;97476.00;;;;4855557;29;93297;-61
2022/03/30 06:41:31;;;;;;;2.60;2.35;;;-2.30;99.90;-2.50;97481.00;;;;4859375;29;92042;-61
2022/03/30 06:43:57;;;;;;;4.28;2.30;;;-2.10;99.90;-2.30;97484.00;;;;4853296;29;92228;-61
2022/03/30 06:46:24;;;;;;;6.60;2.45;;;-2.00;99.90;-2.10;97495.00;;;;4863345;29;92793;-61
2022/03/30 06:48:50;;;;;;;3.90;2.28;;;-1.90;99.90;-2.00;97495.00;;;;4833892;29;92513;-61
2022/03/30 06:51:16;;;;;;;4.88;2.70;;;-1.60;99.90;-2.20;97495.00;;;;4870004;28;92295;-61
2022/03/30 06:53:43;;;;;;;2.80;2.30;;;-1.80;99.90;-1.90;97494.00;;;;4866128;28;91688;-62
2022/03/30 06:56:09;;;;;;;3.08;2.33;;;-1.60;99.90;-1.90;97492.00;;;;4883634;28;93215;-62
2022/03/30 06:58:36;;;;;;;5.13;2.50;;;-1.60;99.90;-1.70;97521.00;;;;4881520;28;92480;-61
2022/03/30 07:01:03;;;;;;;3.47;2.42;;;-1.40;99.90;-1.90;97509.00;;;;4858798;28;93041;-62
2022/03/30 07:03:29;;;;;;;3.60;1.90;;;-1.60;99.90;-2.20;97513.00;;;;4873035;28;92180;-62
2022/03/30 07:05:57;;;;;;;3.15;2.30;;;-1.90;99.20;-2.20;97515.00;;;;4872606;28;93971;-62
2022/03/30 07:11:08;;;;;;;2.95;2.17;;;-2.10;99.20;-2.40;97523.00;;;;4876664;28;92163;-62
2022/03/30 07:13:34;;;;;;;5.53;2.70;;;-2.00;99.50;-2.30;97529.00;;;;4872574;28;92088;-62
2022/03/30 07:16:00;;;;;;;3.70;1.98;;;-2.00;99.90;-2.00;97520.00;;;;4878130;28;92682;-61
2022/03/30 07:18:27;;;;;;;4.00;2.10;;;-1.70;99.80;-1.90;97525.00;;;;4868631;28;92269;-61
2022/03/30 07:20:53;;;;;;;6.65;2.67;;;-1.60;99.20;-1.70;97540.00;;;;4856635;28;92336;-61
2022/03/30 07:23:20;;;;;;;3.70;2.08;;;-1.50;99.90;-1.80;97533.00;;;;4877349;28;92488;-62
2022/03/30 07:25:47;;;;;;;4.15;1.98;;;-1.50;99.60;-2.10;97551.00;;;;4879555;28;94582;-61
2022/03/30 07:28:15;;;;;;;3.33;2.03;;;-1.80;99.60;-2.20;97541.00;;;;4870855;28;94469;-60
2022/03/30 07:30:43;;;;;;;3.45;2.17;;;-1.90;99.90;-2.10;97537.00;;;;4878098;28;92031;-61
2022/03/30 07:33:10;;;;;;;3.55;1.90;;;-1.70;99.90;-2.00;97550.00;;;;4880274;28;92112;-60
2022/03/30 07:35:38;;;;;;;2.97;2.17;;;-1.60;99.90;-2.00;97544.00;;;;4882597;28;92890;-61
2022/03/30 07:38:05;;;;;;;4.53;2.38;;;-1.70;99.80;-2.00;97536.00;;;;4870167;28;93376;-61
2022/03/30 07:40:32;;;;;;;4.55;2.13;;;-1.70;99.90;-1.60;97563.00;;;;4877102;28;92255;-63
2022/03/30 07:42:58;;;;;;;3.80;2.53;;;-1.40;99.90;-1.50;97552.00;;;;4869931;28;91300;-61
2022/03/30 07:45:25;;;;;;;2.88;2.00;;;-1.20;99.90;-1.70;97565.00;;;;4872874;28;93888;-61
2022/03/30 07:47:52;;;;;;;2.58;1.90;;;-1.40;99.00;-1.70;97578.00;;;;4867692;28;92538;-61
2022/03/30 07:50:19;;;;;;;3.45;1.95;;;-1.40;98.70;-2.00;97563.00;;;;4864252;28;93357;-61
2022/03/30 07:52:46;;;;;;;2.95;2.17;;;-1.60;97.80;-1.90;97559.00;;;;4867014;28;92092;-61
2022/03/30 07:55:13;;;;;;;4.35;2.20;;;-1.50;98.30;-1.70;97569.00;;;;4863006;29;92718;-61
2022/03/30 07:57:42;;;;;;;3.67;2.05;;;-1.30;98.20;-1.60;97566.00;;;;4870751;28;93644;-61
2022/03/30 08:00:12;;;;;;;3.58;1.45;;;-1.30;97.70;-1.40;97557.00;;;;4882140;28;92083;-61
2022/03/30 08:02:39;;;;;;;3.13;1.55;;;-1.10;97.70;-1.30;97570.00;;;;4850721;28;92402;-61
2022/03/30 08:05:08;;;;;;;4.57;1.77;;;-1.00;96.90;-1.40;97566.00;;;;4867596;28;92824;-61
2022/03/30 08:07:34;;;;;;;2.85;1.75;;;-1.00;97.60;-1.20;97555.00;;;;4879026;28;92335;-61
2022/03/30 08:10:00;;;;;;;3.80;1.77;;;-0.80;97.10;-0.70;97572.00;;;;4876028;28;91969;-61
2022/03/30 08:12:27;;;;;;;3.75;2.08;;;-0.40;96.90;-0.60;97574.00;;;;4861528;28;93062;-61
2022/03/30 08:14:54;;;;;;;3.30;1.80;;;-0.50;96.80;-0.60;97566.00;;;;4871680;28;93820;-61
2022/03/30 08:17:21;;;;;;;3.25;1.70;;;-0.40;96.30;-0.60;97574.00;;;;4879042;28;93769;-61
2022/03/30 08:19:47;;;;;;;2.88;1.70;;;-0.30;96.20;-0.80;97569.00;;;;4876629;28;92302;-61
2022/03/30 08:22:28;;;;;;;3.30;1.90;;;-0.60;96.50;-0.80;97578.00;;;;4878848;28;92345;-61
2022/03/30 08:24:59;;;;;;;3.95;1.80;;;-0.60;96.90;-1.10;97571.00;;;;4881028;28;92695;-61
2022/03/30 08:27:29;;;;;;;2.55;1.55;;;-0.80;97.10;-1.10;97581.00;;;;4873560;28;92668;-62
2022/03/30 08:29:57;;;;;;;2.47;1.40;;;-0.80;96.60;-1.50;97590.00;;;;4870679;28;92062;-62
2022/03/30 08:32:24;;;;;;;2.28;1.70;;;-1.20;96.30;-1.40;97578.00;;;;4873343;28;91817;-62
2022/03/30 08:34:54;;;;;;;1.83;1.48;;;-1.10;96.80;-1.50;97586.00;;;;4862818;28;93599;-62
2022/03/30 08:37:21;;;;;;;2.08;1.60;;;-1.20;97.00;-1.40;97581.00;;;;4863345;28;92384;-61
2022/03/30 08:39:49;;;;;;;3.22;1.75;;;-1.10;96.90;-1.10;97586.00;;;;4878155;28;93430;-62
2022/03/30 08:42:17;;;;;;;2.47;1.95;;;-0.80;96.50;-0.90;97584.00;;;;4855573;29;92620;-61
2022/03/30 08:44:49;;;;;;;2.83;1.80;;;-0.60;96.00;-0.80;97578.00;;;;4868455;28;93728;-62
2022/03/30 08:47:15;;;;;;;5.30;2.05;;;-0.60;96.20;-0.90;97590.00;;;;4866901;28;92600;-62
2022/03/30 08:49:44;;;;;;;3.90;2.10;;;-0.60;96.40;-1.00;97586.00;;;;4873273;28;92485;-63
2022/03/30 08:52:11;;;;;;;3.08;2.03;;;-0.80;96.40;-0.90;97579.00;;;;4873857;28;92041;-62
2022/03/30 08:54:45;;;;;;;3.25;1.92;;;-0.60;96.60;-0.60;97576.00;;;;4862997;29;92928;-60
2022/03/30 08:57:12;;;;;;;4.00;1.80;;;-0.40;94.80;-0.50;97585.00;;;;4868367;28;93471;-61
2022/03/30 08:59:39;;;;;;;3.30;1.80;;;-0.20;94.80;-0.50;97590.00;;;;4874361;28;92096;-62
2022/03/30 09:02:08;;;;;;;4.18;2.22;;;-0.30;94.50;-0.50;97593.00;;;;4869765;28;92326;-62
2022/03/30 09:04:34;;;;;;;2.95;1.85;;;-0.20;95.20;-0.50;97584.00;;;;4847060;29;93673;-63
2022/03/30 09:07:00;;;;;;;5.32;2.15;;;-0.20;95.30;-0.40;97586.00;;;;4878915;28;93692;-62
2022/03/30 09:09:38;;;;;;;3.38;1.77;;;-0.20;95.90;-0.40;97587.00;;;;4876523;28;92186;-63
2022/03/30 09:12:11;;;;;;;3.20;1.92;;;-0.10;94.80;-0.30;97586.00;;;;4871457;28;92655;-62
2022/03/30 09:14:39;;;;;;;5.32;2.10;;;-0.10;95.00;-0.60;97597.00;;;;4869774;28;92717;-63
2022/03/30 09:17:08;;;;;;;3.53;2.10;;;-0.30;95.50;-0.70;97588.00;;;;4876653;28;92315;-62
2022/03/30 09:19:40;;;;;;;3.80;2.38;;;-0.30;96.10;-0.40;97590.00;;;;4878624;28;92241;-62
2022/03/30 09:22:10;;;;;;;3.78;1.98;;;-0.20;96.30;-0.20;97591.00;;;;4876931;28;91291;-63
2022/03/30 09:24:39;;;;;;;2.80;1.95;;;0.10;95.60;-0.10;97594.00;;;;4872165;28;93730;-63
2022/03/30 09:27:07;;;;;;;2.00;1.80;;;0.10;95.00;-0.20;97598.00;;;;4876387;28;92831;-62
2022/03/30 09:29:37;;;;;;;2.50;1.50;;;0.10;95.10;-0.20;97615.00;;;;4850038;28;93245;-61
2022/03/30 09:32:09;;;;;;;2.60;1.90;;;0.10;94.00;-0.30;97599.00;;;;4858817;28;92644;-61
2022/03/30 09:34:48;;;;;;;4.30;2.10;;;0.00;94.50;-0.40;97599.00;;;;4881533;28;92582;-61
2022/03/30 09:37:15;;;;;;;4.10;3.28;;;0.00;94.40;-0.20;97600.00;;;;4869106;28;93429;-61
2022/03/30 09:39:44;;;;;;;7.63;2.65;;;0.20;94.60;0.00;97598.00;;;;4869353;28;92554;-61
2022/03/30 09:42:11;;;;;;;3.65;1.95;;;0.20;94.30;0.10;97608.00;;;;4870347;28;92473;-62
2022/03/30 09:44:54;;;;;;;3.70;2.22;;;0.30;94.40;0.10;97602.00;;;;4875492;28;92721;-61
2022/03/30 09:47:36;;;;;;;3.05;1.90;;;0.40;95.10;-0.10;97601.00;;;;4866189;28;92603;-61
2022/03/30 09:50:08;;;;;;;4.57;1.63;;;0.30;94.10;-0.20;97606.00;;;;4881420;28;92100;-62
2022/03/30 09:52:34;;;;;;;3.53;1.77;;;0.20;92.90;-0.30;97597.00;;;;4879685;28;92321;-62
2022/03/30 09:55:06;;;;;;;5.85;2.47;;;0.10;93.50;-0.10;97604.00;;;;4867280;28;93611;-63
2022/03/30 09:57:34;;;;;;;4.45;2.00;;;0.20;92.90;0.00;97600.00;;;;4878872;28;93044;-62
2022/03/30 10:00:03;;;;;;;5.13;1.88;;;0.30;92.40;0.10;97599.00;;;;4858852;28;93046;-61
2022/03/30 10:02:46;;;;;;;2.70;1.88;;;0.40;91.80;0.00;97609.00;;;;4861907;28;92560;-62
2022/03/30 10:05:16;;;;;;;2.78;1.60;;;0.30;91.90;-0.20;97602.00;;;;4864652;28;93644;-62
2022/03/30 10:07:42;;;;;;;3.00;1.88;;;0.20;92.30;-0.20;97605.00;;;;4852060;28;92433;-62
2022/03/30 10:10:12;;;;;;;3.28;1.85;;;0.10;92.40;-0.10;97596.00;;;;4853134;28;92083;-61
2022/03/30 10:12:39;;;;;;;4.15;1.90;;;0.10;93.10;0.00;97594.00;;;;4874799;28;91389;-62
2022/03/30 10:15:08;;;;;;;2.13;1.60;;;0.40;93.00;0.20;97598.00;;;;4874231;28;93650;-63
2022/03/30 10:17:34;;;;;;;3.78;2.00;;;0.60;92.00;0.60;97599.00;;;;4873628;28;93528;-61
2022/03/30 10:20:02;;;;;;;1.92;1.50;;;0.90;91.60;0.70;97592.00;;;;4877793;28;93486;-61
2022/03/30 10:23:12;;;;;;;2.97;1.60;;;0.90;90.20;0.90;97591.00;;;;4878724;28;92142;-62
2022/03/30 10:26:09;;;;;;;2.45;1.33;;;1.10;90.20;0.80;97585.00;;;;4862097;28;93687;-64
2022/03/30 10:28:55;;;;;;;3.10;1.13;;;0.90;89.30;0.70;97585.00;;;;4861244;28;92388;-62
2022/03/30 10:31:22;;;;;;;1.42;1.15;;;0.90;86.10;0.90;97590.00;;;;4865052;28;92128;-62
2022/03/30 10:33:49;;;;;;;1.85;1.08;;;1.10;84.90;0.90;97604.00;;;;4884317;28;92323;-63
2022/03/30 10:36:31;;;;;;;4.43;1.52;;;1.10;84.60;0.60;97601.00;;;;4866707;28;92805;-62
2022/03/30 10:39:16;;;;;;;1.45;1.20;;;0.80;86.40;0.70;97589.00;;;;4866409;28;91603;-62
2022/03/30 10:42:05;;;;;;;3.15;1.58;;;0.90;86.40;1.00;97581.00;;;;4871282;28;92349;-62
2022/03/30 10:44:46;;;;;;;2.50;1.42;;;1.10;87.40;1.50;97592.00;;;;4870722;28;92268;-62
2022/03/30 10:47:23;;;;;;;2.00;1.53;;;1.70;84.70;1.60;97599.00;;;;4879739;28;93335;-62
2022/03/30 10:50:00;;;;;;;2.40;1.40;;;1.70;83.30;1.20;97588.00;;;;4882824;28;92628;-62
2022/03/30 10:52:47;;;;;;;2.15;1.55;;;1.40;84.30;1.20;97590.00;;;;4858718;28;92581;-62
2022/03/30 10:55:13;;;;;;;2.90;1.50;;;1.30;86.70;0.80;97592.00;;;;4865406;29;92459;-61
2022/03/30 10:57:58;;;;;;;2.92;1.50;;;1.00;85.10;0.80;97588.00;;;;4871161;28;95297;-61
2022/03/30 11:00:36;;;;;;;5.65;1.67;;;0.90;85.70;0.60;97594.00;;;;4871597;28;92894;-62
2022/03/30 11:03:21;;;;;;;3.78;1.83;;;0.80;86.50;0.50;97612.00;;;;4868286;28;92564;-63
2022/03/30 11:06:09;;;;;;;3.92;1.80;;;0.70;86.40;0.20;97599.00;;;;4871573;28;91248;-62
2022/03/30 11:08:45;;;;;;;3.38;1.63;;;0.50;85.80;0.30;97608.00;;;;4882188;28;93148;-63